Terminal Aerodrome Forecast
Issued by NWS Atlanta, GA

Home | Current Version | Previous Version | Text Only | Print | Product List | Glossary On
Versions: 1 2 3 4 5 6 7 8 9 10 11 12 13 14 15 16 17 18 19 20 21 22 23 24 25 26 27 28 29 30
398
FTAK31 PAJN 210527
TAFAHN
TAF
PAHN 210527Z 2106/2206 12010KT 6SM -RA BR SCT006 OVC040
      TEMPO 2106/2110 4SM -RA BR BKN025 OVC040
     FM211000 11007KT P6SM -RA SCT010 OVC025
     FM211900 11009KT P6SM -RA SCT010 OVC030
     FM220200 11006KT 6SM -RA SCT010 OVC025
      AMD LTD TO CLD VIS AND WIND=

USA.gov is the U.S. government's official web portal to all federal, state and local government web resources and services.